Davis Field

About
Name: Davis Field
Identifier:  MKO/KMKO
Local Time:  18. Aug 07:49 CDT
Location
Flights per Day
0 flights
Distance: 1,027km (638mi)
Punctuality
50% (0 flights per day delayed)
Delay Average: 50 minutes
Current Weather
 27 C (Humidity: 78%)
  0kt (0km/h / 0mph) from 0°
  Broken clouds at 2,700 feet (822 meter)
  16km (10 mi.)
 METAR KMKO 181239Z AUTO 00000KT 10SM BKN027 27/23 A2990 RMK AO2 T02670233

Current Flights

Departures
Number Departure To Airline
Arrivals
Number Arrival From Airline

Current Delays

Departures
N/A
Arrivals
N/A

Destinations

Top Destinations
Airport Flights
per week
Seats
per week
  Chicago (DPA) 0 - 0 0
  Pensacola (PNS) 0 - 0 0
  Gulf Shores (GUF) 0 - 0 0
  Oklahoma City (OKC) 0 - 0 0
  Chicago (MDW) 0 - 0 0
  Burlington (BRL) 0 - 0 0
  Missoula (MSO) 0 - 0 0
  Alexandria (AXN) 0 - 0 0
  Davenport (DVN) 0 - 0 0
  Scottsdale (SCF) 0 - 0 0
  Romeoville (LOT) 0 - 0 0
  Mc Alester (MLC) 0 - 0 0
  Rapid City (RAP) 0 - 0 0
  Spencer (SPW) 0 - 0 0
  Appleton (ATW) 0 - 0 0

Airlines & Planes

Top Airlines
Airline Flights
per Day
Seats
per Day
  Novair 0 -
  Nolinor Aviation 0 -
Nordwind Airlines 0 -
Jet Charter Inc ( Franklin Lakes Nj ) 0 -
  Flybe Nordic 0 -
Top Plane Types
Model Flights Seats
Cirrus SR22 0.1/day - 0
Beech G36 Bonanza 0.1/day - 0
Cessna C172 0.0/day - 0
Cessna C182 0.0/day - 0
Pilatus PC-12 0.0/day - 0